WetterOnline ( https://www.wetteronline.ch )

Wetter aktuell Weiden

Aktuelles Wetter: Weiden (439m)

6-stündlich | Neueste Meldungen
Ortszeit Temperatur Wetter
Do, 21.11. 19:00 4.3° C Sprühregen
Do, 21.11. 13:00 6.2° C bedeckt
Do, 21.11. 7:00 5.2° C Regen
Do, 21.11. 1:00 4.5° C Sprühregen
Mi, 20.11. 19:00 4.6° C bedeckt
Mi, 20.11. 13:00 4.4° C bedeckt
Mi, 20.11. 7:00 1.7° C bedeckt
Mi, 20.11. 1:00 2.5° C bewölkt
Ortszeit Temperatur Wetter
Fr, 22.11. 0:30 3.0° C bedeckt
Fr, 22.11. 0:20 3.0° C bedeckt
Fr, 22.11. 0:10 3.0° C bedeckt
Fr, 22.11. 0:00 3.0° C bedeckt
Do, 21.11. 23:50 3.0° C bedeckt
Do, 21.11. 23:40 3.0° C bedeckt
Do, 21.11. 23:30 3.1° C Sprühregen
Do, 21.11. 23:00 3.1° C bedeckt
Do, 21.11. 22:30 3.3° C bedeckt
Do, 21.11. 22:00 3.6° C Sprühregen
Do, 21.11. 21:30 3.8° C bedeckt
Ortszeit Relative Feuchte Sichtweite
Do, 21.11. 19:00 98% 5.0 km
Do, 21.11. 13:00 95% 13 km
Do, 21.11. 7:00 98% 3.0 km
Do, 21.11. 1:00 95% 8 km
Mi, 20.11. 19:00 89% 14 km
Mi, 20.11. 13:00 84% 21 km
Mi, 20.11. 7:00 94% 13 km
Mi, 20.11. 1:00 96% 16 km
Ortszeit Relative Feuchte Sichtweite
Fr, 22.11. 0:30 99% 3.0 km
Fr, 22.11. 0:20 99% -
Fr, 22.11. 0:10 99% -
Fr, 22.11. 0:00 99% 2.6 km
Do, 21.11. 23:50 99% -
Do, 21.11. 23:40 99% -
Do, 21.11. 23:30 99% 2.4 km
Do, 21.11. 23:00 98% 3.3 km
Do, 21.11. 22:30 97% 4.5 km
Do, 21.11. 22:00 97% 5.0 km
Do, 21.11. 21:30 97% 6 km
Ortszeit Niederschlagsmenge Niederschlagsart
Do, 21.11. 19:00 0.3 l/m2 in 12 Std. Regen
Do, 21.11. 13:00 0.1 l/m2 in 6 Std. Regen
Do, 21.11. 7:00 0.1 l/m2 in 12 Std. Regen
Do, 21.11. 1:00 0.1 l/m2 in 6 Std. Regen
Mi, 20.11. 19:00 0.0 l/m2 in 12 Std. -
Mi, 20.11. 13:00 0.0 l/m2 in 6 Std. -
Mi, 20.11. 7:00 0.1 l/m2 in 12 Std. -
Mi, 20.11. 1:00 0.1 l/m2 in 6 Std. Regen
Ortszeit Niederschlagsmenge Niederschlagsart
Fr, 22.11. 0:30 0.0 l/m2 in 1 Std. -
Fr, 22.11. 0:20 keine Meldung -
Fr, 22.11. 0:10 keine Meldung -
Fr, 22.11. 0:00 0.1 l/m2 in 1 Std. Sprühregen
Do, 21.11. 23:50 keine Meldung -
Do, 21.11. 23:40 keine Meldung -
Do, 21.11. 23:30 0.1 l/m2 in 1 Std. -
Do, 21.11. 23:00 0.1 l/m2 in 1 Std. Sprühregen
Do, 21.11. 22:30 0.1 l/m2 in 1 Std. Schnee
Do, 21.11. 22:00 0.1 l/m2 in 1 Std. Sprühregen
Do, 21.11. 21:30 0.0 l/m2 in 1 Std. -
Ortszeit Stärke Spitze Richtung
km/h Bft. km/h Grad Sektor
Do, 21.11. 19:00 7 2 14 190° S
Do, 21.11. 13:00 7 2 11 210° SW
Do, 21.11. 7:00 4 1 7 210° SW
Do, 21.11. 1:00 0 0 11 - -
Mi, 20.11. 19:00 0 0 18 - -
Mi, 20.11. 13:00 7 2 18 340° N
Mi, 20.11. 7:00 7 2 18 350° N
Mi, 20.11. 1:00 4 1 11 30° NO
Ortszeit Stärke Spitze Richtung
km/h Bft. km/h Grad Sektor
Fr, 22.11. 0:30 6 1 13 190° S
Fr, 22.11. 0:20 6 1 - 190° S
Fr, 22.11. 0:10 7 2 - 200° S
Fr, 22.11. 0:00 6 1 17 200° S
Do, 21.11. 23:50 6 1 - 200° S
Do, 21.11. 23:40 7 2 - 200° S
Do, 21.11. 23:30 6 1 17 200° S
Do, 21.11. 23:00 9 2 19 190° S
Do, 21.11. 22:30 7 2 18 190° S
Do, 21.11. 22:00 7 2 14 200° S
Do, 21.11. 21:30 9 2 13 180° S
Ortszeit Untergrenze Bedeckung Gattung
total tief tief mittel hoch
Do, 21.11. 19:00 90 m 8/8 8/8 - - -
Do, 21.11. 13:00 150 m 8/8 8/8 - - -
Do, 21.11. 7:00 90 m 8/8 8/8 - - -
Do, 21.11. 1:00 30 m 8/8 8/8 - - -
Mi, 20.11. 19:00 300 m 8/8 8/8 - - -
Mi, 20.11. 13:00 360 m 8/8 8/8 - - -
Mi, 20.11. 7:00 150 m 8/8 8/8 - - -
Mi, 20.11. 1:00 900 m 8/8 5/8 - - -
Ortszeit Bedeckungsgrad in Achtel und Wolkenuntergrenze
Fr, 22.11. 0:30 8(60m)
Fr, 22.11. 0:20 8(60m)
Fr, 22.11. 0:10 8(60m)
Fr, 22.11. 0:00 8(60m)
Do, 21.11. 23:50 8(60m)
Do, 21.11. 23:40 8(60m)
Do, 21.11. 23:30 8(60m)
Do, 21.11. 23:00 8(60m)
Do, 21.11. 22:30 8(90m)
Do, 21.11. 22:00 8(90m)
Do, 21.11. 21:30 8(120m)
Ortszeit Luftdruck NN (hPa) Tendenz (hPa in 3 Std.)
Do, 21.11. 19:00 1011 + 0,7
Do, 21.11. 13:00 1010 - 1,3
Do, 21.11. 7:00 1011 - 0,7
Do, 21.11. 1:00 1013 - 1,2
Mi, 20.11. 19:00 1015 - 0,4
Mi, 20.11. 13:00 1017 - 1,3
Mi, 20.11. 7:00 1019 - 0,2
Mi, 20.11. 1:00 1019 - 0,2
Ortszeit Luftdruck NN (hPa) Tendenz (hPa in 3 Std.)
Fr, 22.11. 0:30 1012 + 0,1
Fr, 22.11. 0:20 1012 keine Meldung
Fr, 22.11. 0:10 1012 keine Meldung
Fr, 22.11. 0:00 1012 + 0,4
Do, 21.11. 23:50 1012 keine Meldung
Do, 21.11. 23:40 1012 keine Meldung
Do, 21.11. 23:30 1012 + 0,6
Do, 21.11. 23:00 1012 + 0,9
Do, 21.11. 22:30 1012 + 0,7
Do, 21.11. 22:00 1012 + 0,6
Do, 21.11. 21:30 1011 + 0,6
Ortszeit Schneehöhe (cm)
Do, 21.11. 19:00 0
Do, 21.11. 13:00 0
Do, 21.11. 7:00 0
Do, 21.11. 1:00 0
Mi, 20.11. 19:00 0
Mi, 20.11. 13:00 0
Mi, 20.11. 7:00 0
Mi, 20.11. 1:00 0
Ortszeit Schneehöhe (cm)
Fr, 22.11. 0:30 0
Fr, 22.11. 0:20 0
Fr, 22.11. 0:10 0
Fr, 22.11. 0:00 0
Do, 21.11. 23:50 0
Do, 21.11. 23:40 0
Do, 21.11. 23:30 0
Do, 21.11. 23:00 0
Do, 21.11. 22:30 0
Do, 21.11. 22:00 0
Do, 21.11. 21:30 0
Link zu dieser Seite / Seite empfehlen

Das Wetter in ...